sensor_id;sensor_type;location;lat;lon;timestamp;P1;durP1;ratioP1;P2;durP2;ratioP2
19189;SDS011;9727;50.200;19.038;2024-02-04T00:01:19;16.77;;;8.53;;
19189;SDS011;9727;50.200;19.038;2024-02-04T00:03:46;14.40;;;8.90;;
19189;SDS011;9727;50.200;19.038;2024-02-04T00:06:14;15.67;;;8.37;;
19189;SDS011;9727;50.200;19.038;2024-02-04T00:08:41;14.60;;;8.33;;
19189;SDS011;9727;50.200;19.038;2024-02-04T00:11:07;16.37;;;9.00;;
19189;SDS011;9727;50.200;19.038;2024-02-04T00:13:36;17.03;;;9.97;;
19189;SDS011;9727;50.200;19.038;2024-02-04T00:16:03;18.87;;;11.03;;
19189;SDS011;9727;50.200;19.038;2024-02-04T00:18:30;19.83;;;10.63;;
19189;SDS011;9727;50.200;19.038;2024-02-04T00:20:57;20.23;;;11.77;;
19189;SDS011;9727;50.200;19.038;2024-02-04T00:23:25;22.33;;;12.47;;
19189;SDS011;9727;50.200;19.038;2024-02-04T00:25:51;19.93;;;12.20;;
19189;SDS011;9727;50.200;19.038;2024-02-04T00:28:20;18.40;;;11.13;;
19189;SDS011;9727;50.200;19.038;2024-02-04T00:30:46;15.90;;;10.30;;
19189;SDS011;9727;50.200;19.038;2024-02-04T00:33:14;20.23;;;11.40;;
19189;SDS011;9727;50.200;19.038;2024-02-04T00:35:45;16.60;;;10.80;;
19189;SDS011;9727;50.200;19.038;2024-02-04T00:38:11;21.30;;;11.30;;
19189;SDS011;9727;50.200;19.038;2024-02-04T00:40:39;18.10;;;11.40;;
19189;SDS011;9727;50.200;19.038;2024-02-04T00:43:06;19.40;;;12.40;;
19189;SDS011;9727;50.200;19.038;2024-02-04T00:45:32;16.70;;;11.43;;
19189;SDS011;9727;50.200;19.038;2024-02-04T00:47:59;18.87;;;12.23;;
19189;SDS011;9727;50.200;19.038;2024-02-04T00:50:25;18.83;;;11.60;;
19189;SDS011;9727;50.200;19.038;2024-02-04T00:52:52;22.70;;;13.33;;
19189;SDS011;9727;50.200;19.038;2024-02-04T00:55:19;21.83;;;14.53;;
19189;SDS011;9727;50.200;19.038;2024-02-04T00:57:47;18.20;;;13.47;;
19189;SDS011;9727;50.200;19.038;2024-02-04T01:00:14;24.90;;;14.13;;
19189;SDS011;9727;50.200;19.038;2024-02-04T01:02:44;24.33;;;13.73;;
19189;SDS011;9727;50.200;19.038;2024-02-04T01:05:11;22.70;;;14.27;;
19189;SDS011;9727;50.200;19.038;2024-02-04T01:07:37;22.37;;;14.70;;
19189;SDS011;9727;50.200;19.038;2024-02-04T01:10:04;22.27;;;13.57;;
19189;SDS011;9727;50.200;19.038;2024-02-04T01:12:31;22.70;;;14.27;;
19189;SDS011;9727;50.200;19.038;2024-02-04T01:14:59;20.23;;;12.73;;
19189;SDS011;9727;50.200;19.038;2024-02-04T01:17:26;19.73;;;12.90;;
19189;SDS011;9727;50.200;19.038;2024-02-04T01:19:53;18.00;;;13.13;;
19189;SDS011;9727;50.200;19.038;2024-02-04T01:22:20;17.93;;;11.93;;
19189;SDS011;9727;50.200;19.038;2024-02-04T01:24:51;17.97;;;11.73;;
19189;SDS011;9727;50.200;19.038;2024-02-04T01:27:20;15.23;;;10.40;;
19189;SDS011;9727;50.200;19.038;2024-02-04T01:29:47;14.17;;;9.73;;
19189;SDS011;9727;50.200;19.038;2024-02-04T01:32:14;12.67;;;8.73;;
19189;SDS011;9727;50.200;19.038;2024-02-04T01:34:43;10.83;;;7.53;;
19189;SDS011;9727;50.200;19.038;2024-02-04T01:37:10;9.70;;;6.87;;
19189;SDS011;9727;50.200;19.038;2024-02-04T01:39:36;10.63;;;7.23;;
19189;SDS011;9727;50.200;19.038;2024-02-04T01:42:03;11.13;;;7.13;;
19189;SDS011;9727;50.200;19.038;2024-02-04T01:44:30;12.77;;;7.47;;
19189;SDS011;9727;50.200;19.038;2024-02-04T01:46:57;11.33;;;7.73;;
19189;SDS011;9727;50.200;19.038;2024-02-04T01:49:25;11.13;;;7.00;;
19189;SDS011;9727;50.200;19.038;2024-02-04T01:51:51;13.83;;;7.40;;
19189;SDS011;9727;50.200;19.038;2024-02-04T01:54:20;11.23;;;7.30;;
19189;SDS011;9727;50.200;19.038;2024-02-04T01:56:46;11.03;;;7.17;;
19189;SDS011;9727;50.200;19.038;2024-02-04T01:59:12;10.13;;;7.30;;
19189;SDS011;9727;50.200;19.038;2024-02-04T02:01:39;10.10;;;6.80;;
19189;SDS011;9727;50.200;19.038;2024-02-04T02:04:06;9.17;;;6.70;;
19189;SDS011;9727;50.200;19.038;2024-02-04T02:06:34;11.17;;;6.77;;
19189;SDS011;9727;50.200;19.038;2024-02-04T02:09:06;8.93;;;6.80;;
19189;SDS011;9727;50.200;19.038;2024-02-04T02:11:35;11.37;;;7.10;;
19189;SDS011;9727;50.200;19.038;2024-02-04T02:14:04;9.70;;;6.80;;
19189;SDS011;9727;50.200;19.038;2024-02-04T02:16:32;8.93;;;6.93;;
19189;SDS011;9727;50.200;19.038;2024-02-04T02:19:00;14.07;;;6.77;;
19189;SDS011;9727;50.200;19.038;2024-02-04T02:21:32;10.23;;;7.10;;
19189;SDS011;9727;50.200;19.038;2024-02-04T02:24:07;7.57;;;5.40;;
19189;SDS011;9727;50.200;19.038;2024-02-04T02:26:37;9.90;;;5.07;;
19189;SDS011;9727;50.200;19.038;2024-02-04T02:29:04;7.97;;;4.00;;
19189;SDS011;9727;50.200;19.038;2024-02-04T02:31:33;4.40;;;3.07;;
19189;SDS011;9727;50.200;19.038;2024-02-04T02:34:00;3.67;;;3.10;;
19189;SDS011;9727;50.200;19.038;2024-02-04T02:36:26;4.10;;;2.53;;
19189;SDS011;9727;50.200;19.038;2024-02-04T02:38:58;4.03;;;3.03;;
19189;SDS011;9727;50.200;19.038;2024-02-04T02:41:25;4.30;;;2.43;;
19189;SDS011;9727;50.200;19.038;2024-02-04T02:43:55;5.00;;;2.30;;
19189;SDS011;9727;50.200;19.038;2024-02-04T02:46:22;3.37;;;1.80;;
19189;SDS011;9727;50.200;19.038;2024-02-04T02:48:49;1.97;;;1.70;;
19189;SDS011;9727;50.200;19.038;2024-02-04T02:51:15;1.83;;;1.40;;
19189;SDS011;9727;50.200;19.038;2024-02-04T02:53:46;1.73;;;1.47;;
19189;SDS011;9727;50.200;19.038;2024-02-04T02:56:12;1.93;;;1.50;;
19189;SDS011;9727;50.200;19.038;2024-02-04T02:58:39;2.07;;;1.50;;
19189;SDS011;9727;50.200;19.038;2024-02-04T03:01:07;2.83;;;1.43;;
19189;SDS011;9727;50.200;19.038;2024-02-04T03:03:33;1.47;;;1.30;;
19189;SDS011;9727;50.200;19.038;2024-02-04T03:06:00;2.53;;;1.40;;
19189;SDS011;9727;50.200;19.038;2024-02-04T03:08:26;2.53;;;1.47;;
19189;SDS011;9727;50.200;19.038;2024-02-04T03:10:53;1.23;;;1.10;;
19189;SDS011;9727;50.200;19.038;2024-02-04T03:13:20;2.93;;;1.33;;
19189;SDS011;9727;50.200;19.038;2024-02-04T03:15:46;2.33;;;1.50;;
19189;SDS011;9727;50.200;19.038;2024-02-04T03:18:14;1.43;;;1.33;;
19189;SDS011;9727;50.200;19.038;2024-02-04T03:20:40;2.07;;;1.77;;
19189;SDS011;9727;50.200;19.038;2024-02-04T03:23:07;2.20;;;1.50;;
19189;SDS011;9727;50.200;19.038;2024-02-04T03:25:33;2.67;;;1.37;;
19189;SDS011;9727;50.200;19.038;2024-02-04T03:28:00;2.30;;;1.60;;
19189;SDS011;9727;50.200;19.038;2024-02-04T03:30:26;3.43;;;1.60;;
19189;SDS011;9727;50.200;19.038;2024-02-04T03:32:53;3.07;;;1.83;;
19189;SDS011;9727;50.200;19.038;2024-02-04T03:35:21;2.50;;;1.20;;
19189;SDS011;9727;50.200;19.038;2024-02-04T03:37:48;2.33;;;1.40;;
19189;SDS011;9727;50.200;19.038;2024-02-04T03:40:14;5.50;;;1.43;;
19189;SDS011;9727;50.200;19.038;2024-02-04T03:42:41;2.20;;;1.70;;
19189;SDS011;9727;50.200;19.038;2024-02-04T03:45:07;2.23;;;1.47;;
19189;SDS011;9727;50.200;19.038;2024-02-04T03:47:34;2.70;;;1.60;;
19189;SDS011;9727;50.200;19.038;2024-02-04T03:50:00;2.27;;;1.80;;
19189;SDS011;9727;50.200;19.038;2024-02-04T03:52:29;3.10;;;1.90;;
19189;SDS011;9727;50.200;19.038;2024-02-04T03:54:55;3.70;;;1.70;;
19189;SDS011;9727;50.200;19.038;2024-02-04T03:57:22;2.63;;;1.67;;
19189;SDS011;9727;50.200;19.038;2024-02-04T03:59:48;2.60;;;1.80;;
19189;SDS011;9727;50.200;19.038;2024-02-04T04:02:15;3.83;;;1.63;;
19189;SDS011;9727;50.200;19.038;2024-02-04T04:04:45;2.10;;;1.60;;
19189;SDS011;9727;50.200;19.038;2024-02-04T04:07:12;4.23;;;2.00;;
19189;SDS011;9727;50.200;19.038;2024-02-04T04:09:40;2.37;;;1.60;;
19189;SDS011;9727;50.200;19.038;2024-02-04T04:12:07;3.80;;;1.70;;
19189;SDS011;9727;50.200;19.038;2024-02-04T04:14:33;1.70;;;1.60;;
19189;SDS011;9727;50.200;19.038;2024-02-04T04:17:00;1.90;;;1.53;;
19189;SDS011;9727;50.200;19.038;2024-02-04T04:19:26;2.63;;;1.60;;
19189;SDS011;9727;50.200;19.038;2024-02-04T04:21:53;4.23;;;2.10;;
19189;SDS011;9727;50.200;19.038;2024-02-04T04:24:20;4.87;;;2.07;;
19189;SDS011;9727;50.200;19.038;2024-02-04T04:26:48;3.40;;;2.30;;
19189;SDS011;9727;50.200;19.038;2024-02-04T04:29:15;3.90;;;2.37;;
19189;SDS011;9727;50.200;19.038;2024-02-04T04:31:45;3.77;;;2.50;;
19189;SDS011;9727;50.200;19.038;2024-02-04T04:34:11;4.67;;;2.70;;
19189;SDS011;9727;50.200;19.038;2024-02-04T04:36:38;4.23;;;3.00;;
19189;SDS011;9727;50.200;19.038;2024-02-04T04:39:05;5.27;;;3.10;;
19189;SDS011;9727;50.200;19.038;2024-02-04T04:41:31;4.43;;;3.23;;
19189;SDS011;9727;50.200;19.038;2024-02-04T04:43:59;4.63;;;3.40;;
19189;SDS011;9727;50.200;19.038;2024-02-04T04:46:26;5.73;;;3.53;;
19189;SDS011;9727;50.200;19.038;2024-02-04T04:48:52;3.70;;;3.17;;
19189;SDS011;9727;50.200;19.038;2024-02-04T04:51:23;4.93;;;3.70;;
19189;SDS011;9727;50.200;19.038;2024-02-04T04:53:49;4.97;;;3.93;;
19189;SDS011;9727;50.200;19.038;2024-02-04T04:56:19;4.30;;;3.70;;
19189;SDS011;9727;50.200;19.038;2024-02-04T04:58:46;5.77;;;3.97;;
19189;SDS011;9727;50.200;19.038;2024-02-04T05:01:14;4.67;;;3.73;;
19189;SDS011;9727;50.200;19.038;2024-02-04T05:03:40;4.87;;;3.63;;
19189;SDS011;9727;50.200;19.038;2024-02-04T05:06:07;4.93;;;3.57;;
19189;SDS011;9727;50.200;19.038;2024-02-04T05:08:33;4.00;;;3.20;;
19189;SDS011;9727;50.200;19.038;2024-02-04T05:11:00;3.90;;;3.20;;
19189;SDS011;9727;50.200;19.038;2024-02-04T05:13:26;4.00;;;3.13;;
19189;SDS011;9727;50.200;19.038;2024-02-04T05:15:53;3.77;;;3.30;;
19189;SDS011;9727;50.200;19.038;2024-02-04T05:18:21;4.47;;;3.27;;
19189;SDS011;9727;50.200;19.038;2024-02-04T05:20:51;3.97;;;3.20;;
19189;SDS011;9727;50.200;19.038;2024-02-04T05:23:20;3.93;;;3.23;;
19189;SDS011;9727;50.200;19.038;2024-02-04T05:25:46;4.60;;;3.10;;
19189;SDS011;9727;50.200;19.038;2024-02-04T05:28:12;4.20;;;3.20;;
19189;SDS011;9727;50.200;19.038;2024-02-04T05:30:39;5.30;;;3.20;;
19189;SDS011;9727;50.200;19.038;2024-02-04T05:33:05;4.97;;;3.90;;
19189;SDS011;9727;50.200;19.038;2024-02-04T05:35:33;4.43;;;3.43;;
19189;SDS011;9727;50.200;19.038;2024-02-04T05:38:02;5.07;;;3.87;;
19189;SDS011;9727;50.200;19.038;2024-02-04T05:40:28;4.43;;;3.60;;
19189;SDS011;9727;50.200;19.038;2024-02-04T05:42:55;4.67;;;3.60;;
19189;SDS011;9727;50.200;19.038;2024-02-04T05:45:22;4.87;;;3.77;;
19189;SDS011;9727;50.200;19.038;2024-02-04T05:48:05;3.77;;;3.23;;
19189;SDS011;9727;50.200;19.038;2024-02-04T05:50:33;5.07;;;3.50;;
19189;SDS011;9727;50.200;19.038;2024-02-04T05:53:00;4.83;;;3.67;;
19189;SDS011;9727;50.200;19.038;2024-02-04T05:55:26;4.30;;;3.40;;
19189;SDS011;9727;50.200;19.038;2024-02-04T05:57:53;6.43;;;3.33;;
19189;SDS011;9727;50.200;19.038;2024-02-04T06:00:20;3.63;;;3.20;;
19189;SDS011;9727;50.200;19.038;2024-02-04T06:02:46;3.57;;;2.80;;
19189;SDS011;9727;50.200;19.038;2024-02-04T06:05:13;5.33;;;2.73;;
19189;SDS011;9727;50.200;19.038;2024-02-04T06:07:42;3.43;;;2.37;;
19189;SDS011;9727;50.200;19.038;2024-02-04T06:10:09;3.37;;;2.00;;
19189;SDS011;9727;50.200;19.038;2024-02-04T06:12:35;4.77;;;2.20;;
19189;SDS011;9727;50.200;19.038;2024-02-04T06:15:02;2.13;;;1.50;;
19189;SDS011;9727;50.200;19.038;2024-02-04T06:17:29;5.07;;;1.90;;
19189;SDS011;9727;50.200;19.038;2024-02-04T06:19:55;2.47;;;1.63;;
19189;SDS011;9727;50.200;19.038;2024-02-04T06:22:25;5.77;;;1.70;;
19189;SDS011;9727;50.200;19.038;2024-02-04T06:24:53;3.20;;;1.70;;
19189;SDS011;9727;50.200;19.038;2024-02-04T06:27:20;7.73;;;1.80;;
19189;SDS011;9727;50.200;19.038;2024-02-04T06:29:46;3.23;;;1.33;;
19189;SDS011;9727;50.200;19.038;2024-02-04T06:32:13;6.50;;;1.83;;
19189;SDS011;9727;50.200;19.038;2024-02-04T06:34:39;5.20;;;1.70;;
19189;SDS011;9727;50.200;19.038;2024-02-04T06:37:06;4.80;;;1.87;;
19189;SDS011;9727;50.200;19.038;2024-02-04T06:39:32;2.90;;;1.70;;
19189;SDS011;9727;50.200;19.038;2024-02-04T06:42:00;2.80;;;1.53;;
19189;SDS011;9727;50.200;19.038;2024-02-04T06:44:27;3.90;;;1.87;;
19189;SDS011;9727;50.200;19.038;2024-02-04T06:46:53;3.50;;;1.67;;
19189;SDS011;9727;50.200;19.038;2024-02-04T06:49:20;3.40;;;1.50;;
19189;SDS011;9727;50.200;19.038;2024-02-04T06:51:47;3.50;;;1.83;;
19189;SDS011;9727;50.200;19.038;2024-02-04T06:54:14;6.23;;;2.50;;
19189;SDS011;9727;50.200;19.038;2024-02-04T06:56:40;6.90;;;2.70;;
19189;SDS011;9727;50.200;19.038;2024-02-04T06:59:08;11.10;;;3.50;;
19189;SDS011;9727;50.200;19.038;2024-02-04T07:01:35;11.10;;;3.50;;
19189;SDS011;9727;50.200;19.038;2024-02-04T07:04:01;8.77;;;3.13;;
19189;SDS011;9727;50.200;19.038;2024-02-04T07:06:28;9.47;;;3.37;;
19189;SDS011;9727;50.200;19.038;2024-02-04T07:08:54;9.00;;;3.90;;
19189;SDS011;9727;50.200;19.038;2024-02-04T07:11:21;7.80;;;3.00;;
19189;SDS011;9727;50.200;19.038;2024-02-04T07:13:49;9.60;;;3.00;;
19189;SDS011;9727;50.200;19.038;2024-02-04T07:16:23;7.43;;;3.13;;
19189;SDS011;9727;50.200;19.038;2024-02-04T07:18:50;5.43;;;2.87;;
19189;SDS011;9727;50.200;19.038;2024-02-04T07:21:20;7.70;;;3.03;;
19189;SDS011;9727;50.200;19.038;2024-02-04T07:23:47;8.50;;;2.53;;
19189;SDS011;9727;50.200;19.038;2024-02-04T07:26:13;9.23;;;3.03;;
19189;SDS011;9727;50.200;19.038;2024-02-04T07:28:40;6.40;;;2.70;;
19189;SDS011;9727;50.200;19.038;2024-02-04T07:31:07;7.20;;;2.40;;
19189;SDS011;9727;50.200;19.038;2024-02-04T07:33:34;9.47;;;2.63;;
19189;SDS011;9727;50.200;19.038;2024-02-04T07:36:01;6.33;;;2.50;;
19189;SDS011;9727;50.200;19.038;2024-02-04T07:38:28;5.93;;;2.43;;
19189;SDS011;9727;50.200;19.038;2024-02-04T07:40:54;5.37;;;2.50;;
19189;SDS011;9727;50.200;19.038;2024-02-04T07:43:24;4.40;;;2.20;;
19189;SDS011;9727;50.200;19.038;2024-02-04T07:45:50;4.80;;;2.27;;
19189;SDS011;9727;50.200;19.038;2024-02-04T07:48:21;8.10;;;1.90;;
19189;SDS011;9727;50.200;19.038;2024-02-04T07:50:49;6.50;;;2.33;;
19189;SDS011;9727;50.200;19.038;2024-02-04T07:53:20;6.40;;;2.50;;
19189;SDS011;9727;50.200;19.038;2024-02-04T07:55:47;6.43;;;2.00;;
19189;SDS011;9727;50.200;19.038;2024-02-04T07:58:15;6.93;;;2.40;;
19189;SDS011;9727;50.200;19.038;2024-02-04T08:00:49;8.10;;;2.40;;
19189;SDS011;9727;50.200;19.038;2024-02-04T08:03:15;10.17;;;2.90;;
19189;SDS011;9727;50.200;19.038;2024-02-04T08:05:44;6.20;;;2.80;;
19189;SDS011;9727;50.200;19.038;2024-02-04T08:08:12;7.47;;;2.50;;
19189;SDS011;9727;50.200;19.038;2024-02-04T08:10:39;10.33;;;2.50;;
19189;SDS011;9727;50.200;19.038;2024-02-04T08:13:06;9.10;;;2.60;;
19189;SDS011;9727;50.200;19.038;2024-02-04T08:15:32;7.03;;;2.33;;
19189;SDS011;9727;50.200;19.038;2024-02-04T08:18:00;9.63;;;2.33;;
19189;SDS011;9727;50.200;19.038;2024-02-04T08:20:27;4.40;;;1.80;;
19189;SDS011;9727;50.200;19.038;2024-02-04T08:22:54;11.87;;;2.53;;
19189;SDS011;9727;50.200;19.038;2024-02-04T08:25:22;6.33;;;2.10;;
19189;SDS011;9727;50.200;19.038;2024-02-04T08:27:48;10.93;;;2.60;;
19189;SDS011;9727;50.200;19.038;2024-02-04T08:30:15;6.73;;;2.30;;
19189;SDS011;9727;50.200;19.038;2024-02-04T08:32:45;9.10;;;2.40;;
19189;SDS011;9727;50.200;19.038;2024-02-04T08:35:12;9.80;;;3.20;;
19189;SDS011;9727;50.200;19.038;2024-02-04T08:37:38;9.13;;;2.43;;
19189;SDS011;9727;50.200;19.038;2024-02-04T08:40:05;4.13;;;2.40;;
19189;SDS011;9727;50.200;19.038;2024-02-04T08:42:33;11.30;;;2.43;;
19189;SDS011;9727;50.200;19.038;2024-02-04T08:45:00;8.30;;;2.80;;
19189;SDS011;9727;50.200;19.038;2024-02-04T08:47:27;12.13;;;3.10;;
19189;SDS011;9727;50.200;19.038;2024-02-04T08:49:53;10.20;;;2.70;;
19189;SDS011;9727;50.200;19.038;2024-02-04T08:52:20;3.90;;;2.30;;
19189;SDS011;9727;50.200;19.038;2024-02-04T08:54:47;9.17;;;2.70;;
19189;SDS011;9727;50.200;19.038;2024-02-04T08:57:13;7.30;;;2.47;;
19189;SDS011;9727;50.200;19.038;2024-02-04T08:59:48;7.10;;;2.47;;
19189;SDS011;9727;50.200;19.038;2024-02-04T09:02:14;10.60;;;3.10;;
19189;SDS011;9727;50.200;19.038;2024-02-04T09:04:41;6.83;;;2.50;;
19189;SDS011;9727;50.200;19.038;2024-02-04T09:07:07;9.77;;;3.30;;
19189;SDS011;9727;50.200;19.038;2024-02-04T09:09:34;9.13;;;3.13;;
19189;SDS011;9727;50.200;19.038;2024-02-04T09:12:01;9.57;;;3.20;;
19189;SDS011;9727;50.200;19.038;2024-02-04T09:14:27;9.13;;;3.37;;
19189;SDS011;9727;50.200;19.038;2024-02-04T09:16:55;7.20;;;3.50;;
19189;SDS011;9727;50.200;19.038;2024-02-04T09:19:22;8.23;;;4.17;;
19189;SDS011;9727;50.200;19.038;2024-02-04T09:21:49;9.33;;;3.20;;
19189;SDS011;9727;50.200;19.038;2024-02-04T09:24:18;8.53;;;3.23;;
19189;SDS011;9727;50.200;19.038;2024-02-04T09:26:46;7.60;;;2.80;;
19189;SDS011;9727;50.200;19.038;2024-02-04T09:29:12;4.33;;;2.40;;
19189;SDS011;9727;50.200;19.038;2024-02-04T09:31:39;6.80;;;2.77;;
19189;SDS011;9727;50.200;19.038;2024-02-04T09:34:07;10.07;;;3.27;;
19189;SDS011;9727;50.200;19.038;2024-02-04T09:36:34;8.70;;;3.30;;
19189;SDS011;9727;50.200;19.038;2024-02-04T09:39:00;9.00;;;3.63;;
19189;SDS011;9727;50.200;19.038;2024-02-04T09:41:27;8.03;;;3.27;;
19189;SDS011;9727;50.200;19.038;2024-02-04T09:43:53;7.57;;;2.93;;
19189;SDS011;9727;50.200;19.038;2024-02-04T09:46:20;8.37;;;3.33;;
19189;SDS011;9727;50.200;19.038;2024-02-04T09:48:46;12.07;;;3.57;;
19189;SDS011;9727;50.200;19.038;2024-02-04T09:51:19;7.73;;;3.30;;
19189;SDS011;9727;50.200;19.038;2024-02-04T09:53:46;11.63;;;3.07;;
19189;SDS011;9727;50.200;19.038;2024-02-04T09:56:15;6.30;;;3.20;;
19189;SDS011;9727;50.200;19.038;2024-02-04T09:58:46;8.07;;;3.90;;
19189;SDS011;9727;50.200;19.038;2024-02-04T10:01:12;7.37;;;3.00;;
19189;SDS011;9727;50.200;19.038;2024-02-04T10:03:41;7.93;;;3.53;;
19189;SDS011;9727;50.200;19.038;2024-02-04T10:06:07;8.00;;;3.43;;
19189;SDS011;9727;50.200;19.038;2024-02-04T10:08:35;8.63;;;3.53;;
19189;SDS011;9727;50.200;19.038;2024-02-04T10:11:02;7.20;;;3.20;;
19189;SDS011;9727;50.200;19.038;2024-02-04T10:13:29;7.67;;;3.07;;
19189;SDS011;9727;50.200;19.038;2024-02-04T10:15:57;9.60;;;3.73;;
19189;SDS011;9727;50.200;19.038;2024-02-04T10:18:24;6.43;;;3.47;;
19189;SDS011;9727;50.200;19.038;2024-02-04T10:20:51;9.37;;;4.00;;
19189;SDS011;9727;50.200;19.038;2024-02-04T10:23:20;7.73;;;3.97;;
19189;SDS011;9727;50.200;19.038;2024-02-04T10:25:48;7.80;;;3.80;;
19189;SDS011;9727;50.200;19.038;2024-02-04T10:28:23;8.70;;;4.47;;
19189;SDS011;9727;50.200;19.038;2024-02-04T10:30:49;7.37;;;4.00;;
19189;SDS011;9727;50.200;19.038;2024-02-04T10:33:22;9.43;;;4.50;;
19189;SDS011;9727;50.200;19.038;2024-02-04T10:35:48;8.13;;;4.00;;
19189;SDS011;9727;50.200;19.038;2024-02-04T10:38:15;10.77;;;4.10;;
19189;SDS011;9727;50.200;19.038;2024-02-04T10:40:45;10.30;;;4.03;;
19189;SDS011;9727;50.200;19.038;2024-02-04T10:43:14;6.67;;;3.63;;
19189;SDS011;9727;50.200;19.038;2024-02-04T10:45:40;7.43;;;3.80;;
19189;SDS011;9727;50.200;19.038;2024-02-04T10:48:07;7.13;;;3.80;;
19189;SDS011;9727;50.200;19.038;2024-02-04T10:50:34;8.67;;;3.70;;
19189;SDS011;9727;50.200;19.038;2024-02-04T10:53:02;7.77;;;3.73;;
19189;SDS011;9727;50.200;19.038;2024-02-04T10:55:32;6.73;;;3.40;;
19189;SDS011;9727;50.200;19.038;2024-02-04T10:58:00;6.27;;;3.07;;
19189;SDS011;9727;50.200;19.038;2024-02-04T11:00:28;6.80;;;3.53;;
19189;SDS011;9727;50.200;19.038;2024-02-04T11:02:55;8.83;;;4.00;;
19189;SDS011;9727;50.200;19.038;2024-02-04T11:05:22;7.70;;;3.70;;
19189;SDS011;9727;50.200;19.038;2024-02-04T11:07:49;7.13;;;3.40;;
19189;SDS011;9727;50.200;19.038;2024-02-04T11:10:20;7.90;;;4.17;;
19189;SDS011;9727;50.200;19.038;2024-02-04T11:12:46;8.33;;;3.60;;
19189;SDS011;9727;50.200;19.038;2024-02-04T11:15:14;5.80;;;3.37;;
19189;SDS011;9727;50.200;19.038;2024-02-04T11:20:32;6.43;;;3.73;;
19189;SDS011;9727;50.200;19.038;2024-02-04T11:23:07;7.30;;;4.23;;
19189;SDS011;9727;50.200;19.038;2024-02-04T11:25:40;6.40;;;4.30;;
19189;SDS011;9727;50.200;19.038;2024-02-04T11:28:09;8.03;;;4.47;;
19189;SDS011;9727;50.200;19.038;2024-02-04T11:30:35;11.50;;;4.67;;
19189;SDS011;9727;50.200;19.038;2024-02-04T11:33:02;6.07;;;4.73;;
19189;SDS011;9727;50.200;19.038;2024-02-04T11:35:31;6.20;;;4.07;;
19189;SDS011;9727;50.200;19.038;2024-02-04T11:37:58;7.70;;;4.73;;
19189;SDS011;9727;50.200;19.038;2024-02-04T11:40:29;7.13;;;4.97;;
19189;SDS011;9727;50.200;19.038;2024-02-04T11:43:03;9.27;;;5.80;;
19189;SDS011;9727;50.200;19.038;2024-02-04T11:45:29;7.20;;;5.63;;
19189;SDS011;9727;50.200;19.038;2024-02-04T11:47:59;8.80;;;5.33;;
19189;SDS011;9727;50.200;19.038;2024-02-04T11:50:27;8.67;;;5.50;;
19189;SDS011;9727;50.200;19.038;2024-02-04T11:53:02;10.00;;;6.27;;
19189;SDS011;9727;50.200;19.038;2024-02-04T11:55:28;8.77;;;5.60;;
19189;SDS011;9727;50.200;19.038;2024-02-04T11:57:55;9.83;;;6.07;;
19189;SDS011;9727;50.200;19.038;2024-02-04T12:00:22;10.50;;;6.90;;
19189;SDS011;9727;50.200;19.038;2024-02-04T12:02:59;12.60;;;7.13;;
19189;SDS011;9727;50.200;19.038;2024-02-04T12:05:25;11.93;;;6.73;;
19189;SDS011;9727;50.200;19.038;2024-02-04T12:07:52;15.97;;;8.73;;
19189;SDS011;9727;50.200;19.038;2024-02-04T12:10:21;16.37;;;8.83;;
19189;SDS011;9727;50.200;19.038;2024-02-04T12:12:48;14.47;;;9.50;;
19189;SDS011;9727;50.200;19.038;2024-02-04T12:15:15;14.33;;;9.50;;
19189;SDS011;9727;50.200;19.038;2024-02-04T12:17:45;17.87;;;9.97;;
19189;SDS011;9727;50.200;19.038;2024-02-04T12:20:12;16.70;;;9.33;;
19189;SDS011;9727;50.200;19.038;2024-02-04T12:22:38;15.83;;;10.13;;
19189;SDS011;9727;50.200;19.038;2024-02-04T12:25:05;15.93;;;10.03;;
19189;SDS011;9727;50.200;19.038;2024-02-04T12:27:33;18.23;;;10.63;;
19189;SDS011;9727;50.200;19.038;2024-02-04T12:30:00;19.73;;;10.97;;
19189;SDS011;9727;50.200;19.038;2024-02-04T12:32:26;22.30;;;12.33;;
19189;SDS011;9727;50.200;19.038;2024-02-04T12:34:53;22.33;;;12.57;;
19189;SDS011;9727;50.200;19.038;2024-02-04T12:37:22;23.77;;;13.43;;
19189;SDS011;9727;50.200;19.038;2024-02-04T12:39:48;23.37;;;13.17;;
19189;SDS011;9727;50.200;19.038;2024-02-04T12:42:15;23.40;;;11.13;;
19189;SDS011;9727;50.200;19.038;2024-02-04T12:44:48;21.73;;;10.73;;
19189;SDS011;9727;50.200;19.038;2024-02-04T12:47:20;18.57;;;9.90;;
19189;SDS011;9727;50.200;19.038;2024-02-04T12:49:46;18.73;;;9.87;;
19189;SDS011;9727;50.200;19.038;2024-02-04T12:52:13;15.03;;;8.47;;
19189;SDS011;9727;50.200;19.038;2024-02-04T12:54:40;17.37;;;8.90;;
19189;SDS011;9727;50.200;19.038;2024-02-04T12:57:06;14.97;;;7.97;;
19189;SDS011;9727;50.200;19.038;2024-02-04T12:59:36;13.87;;;7.63;;
19189;SDS011;9727;50.200;19.038;2024-02-04T13:02:04;14.83;;;7.60;;
19189;SDS011;9727;50.200;19.038;2024-02-04T13:04:33;15.70;;;8.50;;
19189;SDS011;9727;50.200;19.038;2024-02-04T13:07:00;15.47;;;8.80;;
19189;SDS011;9727;50.200;19.038;2024-02-04T13:09:26;15.43;;;8.47;;
19189;SDS011;9727;50.200;19.038;2024-02-04T13:12:02;18.53;;;9.93;;
19189;SDS011;9727;50.200;19.038;2024-02-04T13:14:28;19.63;;;10.00;;
19189;SDS011;9727;50.200;19.038;2024-02-04T13:16:55;17.60;;;9.83;;
19189;SDS011;9727;50.200;19.038;2024-02-04T13:19:23;16.50;;;9.47;;
19189;SDS011;9727;50.200;19.038;2024-02-04T13:21:49;19.07;;;10.47;;
19189;SDS011;9727;50.200;19.038;2024-02-04T13:24:19;15.77;;;10.80;;
19189;SDS011;9727;50.200;19.038;2024-02-04T13:26:46;14.90;;;8.97;;
19189;SDS011;9727;50.200;19.038;2024-02-04T13:29:12;12.43;;;8.00;;
19189;SDS011;9727;50.200;19.038;2024-02-04T13:31:39;12.20;;;7.70;;
19189;SDS011;9727;50.200;19.038;2024-02-04T13:34:05;12.43;;;7.97;;
19189;SDS011;9727;50.200;19.038;2024-02-04T13:36:33;14.90;;;7.37;;
19189;SDS011;9727;50.200;19.038;2024-02-04T13:39:00;13.87;;;8.03;;
19189;SDS011;9727;50.200;19.038;2024-02-04T13:41:26;13.70;;;8.07;;
19189;SDS011;9727;50.200;19.038;2024-02-04T13:43:53;12.10;;;7.30;;
19189;SDS011;9727;50.200;19.038;2024-02-04T13:46:19;14.97;;;9.53;;
19189;SDS011;9727;50.200;19.038;2024-02-04T13:48:46;12.67;;;7.53;;
19189;SDS011;9727;50.200;19.038;2024-02-04T13:51:12;8.87;;;6.27;;
19189;SDS011;9727;50.200;19.038;2024-02-04T13:53:40;10.63;;;6.83;;
19189;SDS011;9727;50.200;19.038;2024-02-04T13:56:07;11.23;;;6.47;;
19189;SDS011;9727;50.200;19.038;2024-02-04T13:58:33;9.13;;;5.50;;
19189;SDS011;9727;50.200;19.038;2024-02-04T14:01:00;9.67;;;5.43;;
19189;SDS011;9727;50.200;19.038;2024-02-04T14:03:26;9.17;;;5.60;;
19189;SDS011;9727;50.200;19.038;2024-02-04T14:05:53;8.10;;;5.30;;
19189;SDS011;9727;50.200;19.038;2024-02-04T14:08:20;11.13;;;5.00;;
19189;SDS011;9727;50.200;19.038;2024-02-04T14:10:48;7.03;;;5.17;;
19189;SDS011;9727;50.200;19.038;2024-02-04T14:13:15;7.53;;;5.43;;
19189;SDS011;9727;50.200;19.038;2024-02-04T14:15:45;8.50;;;5.23;;
19189;SDS011;9727;50.200;19.038;2024-02-04T14:18:11;7.93;;;5.27;;
19189;SDS011;9727;50.200;19.038;2024-02-04T14:20:38;8.80;;;5.20;;
19189;SDS011;9727;50.200;19.038;2024-02-04T14:23:05;10.10;;;5.33;;
19189;SDS011;9727;50.200;19.038;2024-02-04T14:25:31;6.67;;;4.40;;
19189;SDS011;9727;50.200;19.038;2024-02-04T14:27:59;9.43;;;4.97;;
19189;SDS011;9727;50.200;19.038;2024-02-04T14:30:26;7.53;;;4.50;;
19189;SDS011;9727;50.200;19.038;2024-02-04T14:32:52;7.00;;;4.97;;
19189;SDS011;9727;50.200;19.038;2024-02-04T14:35:20;6.10;;;4.57;;
19189;SDS011;9727;50.200;19.038;2024-02-04T14:37:46;5.83;;;3.73;;
19189;SDS011;9727;50.200;19.038;2024-02-04T14:40:13;8.57;;;4.27;;
19189;SDS011;9727;50.200;19.038;2024-02-04T14:42:40;6.27;;;4.07;;
19189;SDS011;9727;50.200;19.038;2024-02-04T14:45:09;6.80;;;4.00;;